Delphi Falls, New York
Current Conditions -  °F | °C
As of 3:42 AM on Sunday 23 Nov 2014 (Local Time) from KSYR Reporting Station
Light Rain Light Rain  
Wind Chill: 43°   Ceiling: 2800
Heat Index: 48°   Visibility: 10mi
Dew Point: 41°   Wind: 12mph
Humidity: 77%   Direction: 220°SW
Pressure: 30.02"   Gusts: NA
Location:  42.88°N, 75.91°W
Report Text: KSYR 230842Z 22010KT 10SM -RA OVC028 09/05 A3002 RMK AO2 P0000 T00890050 $
Loading
Personal Weather Stations






























Interactive Weather Map New forecast layout! Learn more

10-Day Weather Forecast

Advertisements
Track Severe Weather on mobile